Time;durP1;ratioP1;P1;durP2;ratioP2;P2;SDS_P1;SDS_P2;PMS_P1;PMS_P2;Temp;Humidity;BMP_temperature;BMP_pressure;BME280_temperature;BME280_humidity;BME280_pressure;Samples;Min_cycle;Max_cycle;Signal;HPM_P1;HPM_P2
2023/06/13 04:07:33;;;;;;;7.20;3.75;;;;;;;11.66;100.00;100085.97;5556852;31;323695;-88
2023/06/13 04:10:37;;;;;;;9.75;3.42;;;;;;;11.64;98.14;100101.13;5551039;32;33525;-88
2023/06/13 04:13:41;;;;;;;7.93;3.50;;;;;;;11.67;98.08;100101.78;5551435;32;34426;-88
2023/06/13 04:16:44;;;;;;;4.05;3.22;;;;;;;11.73;98.87;100104.09;5547769;32;33634;-89
2023/06/13 04:19:50;;;;;;;5.87;3.00;;;;;;;11.81;95.78;100097.47;5586040;26;33779;-89
2023/06/13 04:22:54;;;;;;;6.43;3.40;;;;;;;11.90;94.83;100096.94;5578910;26;33682;-89
2023/06/13 04:26:00;;;;;;;4.25;2.83;;;;;;;12.01;94.01;100106.91;5546167;32;34227;-88
2023/06/13 04:29:03;;;;;;;3.80;2.78;;;;;;;12.19;92.49;100109.44;5568881;26;34785;-88
2023/06/13 04:32:07;;;;;;;4.85;2.95;;;;;;;12.47;88.61;100105.94;5538608;32;33774;-89
2023/06/13 04:35:16;;;;;;;3.35;2.90;;;;;;;12.88;86.83;100117.56;5538112;32;35166;-89
2023/06/13 04:38:21;;;;;;;3.87;3.20;;;;;;;13.19;84.12;100117.44;5543820;32;35124;-92
2023/06/13 04:41:24;;;;;;;3.60;2.90;;;;;;;13.46;79.51;100112.13;5548333;31;33679;-90
2023/06/13 04:44:28;;;;;;;3.85;3.00;;;;;;;13.41;78.03;100111.53;5541613;32;34085;-89
2023/06/13 04:47:32;;;;;;;4.32;2.80;;;;;;;13.84;79.21;100105.16;5544854;32;32634;-89
2023/06/13 04:50:55;;;;;;;5.43;3.17;;;;;;;13.84;77.84;100112.34;5534728;32;34055;-89
2023/06/13 04:53:58;;;;;;;3.37;2.58;;;;;;;13.95;73.01;100109.78;5535500;32;33604;-89
2023/06/13 04:57:01;;;;;;;4.65;2.67;;;;;;;14.04;75.24;100115.44;5579751;26;33774;-89
2023/06/13 05:00:07;;;;;;;3.90;2.95;;;;;;;14.15;75.87;100116.41;5602385;26;33747;-89
2023/06/13 05:03:16;;;;;;;6.55;3.15;;;;;;;14.44;72.40;100115.37;5557260;32;34546;-88
2023/06/13 05:06:20;;;;;;;4.43;2.65;;;;;;;14.37;74.05;100116.72;5554015;32;33484;-88
2023/06/13 05:09:23;;;;;;;4.00;3.00;;;;;;;14.78;71.92;100112.97;5547179;32;36596;-89
2023/06/13 05:12:26;;;;;;;3.35;3.03;;;;;;;14.94;70.61;100117.22;5544964;32;33688;-89
2023/06/13 05:15:28;;;;;;;5.00;2.80;;;;;;;15.11;68.40;100112.47;5564838;26;33752;-89
2023/06/13 05:18:33;;;;;;;3.20;2.70;;;;;;;15.83;63.16;100114.25;5553002;32;33666;-89
2023/06/13 05:21:36;;;;;;;4.28;2.97;;;;;;;17.47;56.00;100115.72;5552085;32;33996;-89
2023/06/13 05:24:39;;;;;;;3.87;2.70;;;;;;;20.52;47.14;100122.91;5551485;32;33821;-89
2023/06/13 05:27:41;;;;;;;3.72;2.60;;;;;;;22.40;40.70;100117.00;5548360;32;33794;-89
2023/06/13 05:30:48;;;;;;;2.58;2.37;;;;;;;24.95;34.02;100122.94;5535911;32;34493;-90
2023/06/13 05:33:51;;;;;;;3.78;2.50;;;;;;;26.71;32.03;100124.06;5535069;32;33912;-89
2023/06/13 05:40:40;;;;;;;3.85;2.42;;;;;;;30.05;26.18;100128.53;841685;29;20492;-89
2023/06/13 05:43:43;;;;;;;2.75;1.90;;;;;;;30.46;25.54;100127.44;5542525;32;31809;-88
2023/06/13 05:46:45;;;;;;;2.40;2.20;;;;;;;31.76;25.16;100125.78;5590023;26;33750;-88
2023/06/13 05:49:48;;;;;;;4.75;2.70;;;;;;;30.13;25.59;100125.63;5537318;32;33049;-88
2023/06/13 05:52:51;;;;;;;3.22;2.37;;;;;;;29.98;25.27;100136.75;5532369;32;34278;-88
2023/06/13 05:55:54;;;;;;;3.95;2.40;;;;;;;30.73;25.23;100123.81;5532666;32;34421;-90
2023/06/13 05:58:56;;;;;;;2.95;2.20;;;;;;;30.61;25.11;100138.13;5530924;32;33986;-88
2023/06/13 06:01:59;;;;;;;2.75;2.15;;;;;;;29.89;24.54;100138.84;5536317;32;33602;-88
2023/06/13 06:05:03;;;;;;;2.22;2.03;;;;;;;29.87;24.98;100138.22;5533777;32;33773;-88
2023/06/13 06:08:06;;;;;;;3.53;2.17;;;;;;;30.75;23.95;100136.22;5535792;32;33758;-89
2023/06/13 06:11:09;;;;;;;3.35;1.90;;;;;;;31.14;23.56;100138.16;5540916;32;33687;-89
2023/06/13 06:14:12;;;;;;;2.28;2.10;;;;;;;31.58;23.00;100135.59;5533426;32;33479;-88
2023/06/13 06:17:15;;;;;;;5.82;2.10;;;;;;;31.26;22.95;100147.34;5538989;32;33577;-87
2023/06/13 06:20:18;;;;;;;2.80;2.20;;;;;;;29.67;24.02;100143.69;5544303;32;33843;-89
2023/06/13 06:23:21;;;;;;;2.10;1.90;;;;;;;30.17;23.36;100135.06;5551152;32;33647;-90
2023/06/13 06:26:24;;;;;;;4.95;2.30;;;;;;;29.95;23.56;100145.34;5538093;32;34108;-91
2023/06/13 06:29:27;;;;;;;4.62;2.00;;;;;;;30.72;23.48;100136.66;5536975;32;33388;-91
2023/06/13 06:43:51;;;;;;;3.90;2.00;;;;;;;25.35;29.95;100120.19;2275224;26;20454;-92
2023/06/13 06:46:58;;;;;;;3.33;2.30;;;;;;;23.76;31.90;100111.66;5548992;32;33776;-89
2023/06/13 06:50:01;;;;;;;2.60;2.40;;;;;;;22.89;34.26;100104.75;5551796;32;32517;-87
2023/06/13 06:53:04;;;;;;;6.60;2.33;;;;;;;22.44;34.43;100099.44;5552321;32;34460;-88
2023/06/13 06:56:07;;;;;;;2.47;2.28;;;;;;;21.62;36.92;100102.41;5553673;32;33685;-89
2023/06/13 06:59:09;;;;;;;2.95;2.45;;;;;;;21.05;37.14;100098.13;5552077;32;35210;-89
2023/06/13 07:02:12;;;;;;;3.12;2.65;;;;;;;21.02;37.89;100101.97;5560497;32;33858;-87
2023/06/13 07:05:18;;;;;;;3.58;2.55;;;;;;;21.04;38.50;100099.13;5557046;32;34598;-88
2023/06/13 07:08:21;;;;;;;3.75;2.50;;;;;;;21.32;38.23;100094.53;5557516;26;33618;-88
2023/06/13 07:11:23;;;;;;;5.00;2.53;;;;;;;21.40;37.95;100094.63;5508990;32;34117;-88
2023/06/13 07:14:26;;;;;;;2.90;2.33;;;;;;;21.88;39.19;100097.06;5501643;32;33649;-88
2023/06/13 07:17:30;;;;;;;5.62;2.35;;;;;;;21.61;36.97;100092.59;5507429;32;33772;-88
2023/06/13 07:20:32;;;;;;;2.47;2.28;;;;;;;21.59;37.26;100092.78;5508529;32;33900;-87
2023/06/13 07:23:35;;;;;;;4.05;2.28;;;;;;;21.68;38.21;100097.22;5519441;32;33565;-87
2023/06/13 07:26:38;;;;;;;3.87;2.28;;;;;;;20.83;39.29;100094.84;5516658;32;35299;-87
2023/06/13 07:29:41;;;;;;;2.78;2.50;;;;;;;20.96;38.67;100094.50;5510064;32;33595;-87
2023/06/13 07:32:44;;;;;;;6.20;2.70;;;;;;;21.45;38.49;100079.81;5511099;32;33741;-88
2023/06/13 07:35:47;;;;;;;3.00;2.70;;;;;;;21.18;39.02;100087.84;5508563;32;34067;-87
2023/06/13 07:38:51;;;;;;;3.80;2.35;;;;;;;21.65;36.58;100088.59;5514049;32;33866;-88
2023/06/13 07:41:53;;;;;;;8.80;2.60;;;;;;;22.50;35.80;100089.84;5516379;32;34002;-88
2023/06/13 07:44:58;;;;;;;3.78;2.42;;;;;;;22.73;36.37;100073.91;5513930;32;35129;-88
2023/06/13 07:48:01;;;;;;;7.05;2.80;;;;;;;22.56;36.36;100066.75;5517300;32;34980;-88
2023/06/13 07:51:05;;;;;;;6.35;2.70;;;;;;;22.05;37.26;100072.88;5511016;32;33911;-87
2023/06/13 07:54:08;;;;;;;2.72;2.30;;;;;;;22.92;36.26;100068.41;5497274;32;34714;-87
2023/06/13 07:57:11;;;;;;;3.47;2.17;;;;;;;23.49;34.46;100072.25;5499270;32;33951;-88
2023/06/13 08:00:34;;;;;;;2.62;2.42;;;;;;;23.43;35.18;100065.62;5503184;32;33736;-88
2023/06/13 08:03:37;;;;;;;8.48;2.60;;;;;;;23.59;35.57;100066.66;5493560;32;34300;-88
2023/06/13 08:06:40;;;;;;;2.80;2.60;;;;;;;23.53;35.74;100066.31;5497285;32;33829;-88
2023/06/13 08:09:43;;;;;;;9.07;2.70;;;;;;;23.92;34.70;100062.06;5528462;32;33433;-88
2023/06/13 08:12:46;;;;;;;2.97;2.53;;;;;;;24.72;34.40;100062.16;5551168;32;33818;-87
2023/06/13 08:15:49;;;;;;;4.30;2.67;;;;;;;24.62;33.68;100072.38;5551337;32;33715;-86
2023/06/13 08:18:52;;;;;;;4.35;2.70;;;;;;;24.79;33.62;100058.75;5546148;32;34148;-88
2023/06/13 08:25:46;;;;;;;4.45;2.58;;;;;;;24.88;32.68;100068.53;5598077;26;20108;-86
2023/06/13 08:28:49;;;;;;;3.45;2.30;;;;;;;25.94;31.58;100053.53;5527322;32;32020;-89
2023/06/13 08:31:52;;;;;;;3.65;2.70;;;;;;;25.39;29.32;100059.91;5534845;32;33554;-89
2023/06/13 08:34:56;;;;;;;2.72;2.12;;;;;;;25.38;30.16;100058.22;5541276;32;34133;-88
2023/06/13 08:37:59;;;;;;;3.37;2.50;;;;;;;23.88;32.39;100062.59;5538631;32;33815;-88
2023/06/13 08:41:02;;;;;;;4.25;2.45;;;;;;;25.34;32.66;100053.34;5534435;32;34221;-88
2023/06/13 08:44:05;;;;;;;5.35;2.30;;;;;;;25.63;30.69;100049.91;5531256;32;33766;-87
2023/06/13 08:47:08;;;;;;;2.20;2.10;;;;;;;25.65;30.69;100044.28;5570666;26;33536;-89
2023/06/13 08:50:31;;;;;;;3.85;2.65;;;;;;;26.49;30.11;100055.97;5569613;31;33665;-87
2023/06/13 08:53:42;;;;;;;4.20;2.50;;;;;;;27.15;29.97;100057.81;5597876;31;33539;-89
2023/06/13 08:56:46;;;;;;;4.62;2.70;;;;;;;27.28;28.04;100058.97;5631071;26;34063;-88
2023/06/13 08:59:55;;;;;;;6.18;2.62;;;;;;;26.38;29.54;100054.56;5608765;26;33526;-89
2023/06/13 09:06:37;;;;;;;4.00;2.70;;;;;;;26.76;28.43;100050.87;1031445;26;20719;-87
2023/06/13 09:09:42;;;;;;;4.12;2.55;;;;;;;26.11;29.45;100054.19;5545828;26;32037;-88
2023/06/13 09:12:46;;;;;;;2.65;2.45;;;;;;;26.18;29.44;100052.41;5532954;32;33670;-88
2023/06/13 09:15:49;;;;;;;2.50;2.30;;;;;;;27.14;29.59;100052.56;5533515;32;33015;-88
2023/06/13 09:18:53;;;;;;;4.85;2.78;;;;;;;27.29;28.87;100049.78;5535337;32;33746;-89
2023/06/13 09:21:56;;;;;;;3.95;2.58;;;;;;;28.11;27.74;100052.97;5534610;32;33424;-88
2023/06/13 09:25:00;;;;;;;4.28;2.40;;;;;;;28.64;25.20;100061.63;5532467;32;33886;-88
2023/06/13 09:28:40;;;;;;;4.12;2.40;;;;;;;28.97;26.43;100046.47;5534914;32;34488;-89
2023/06/13 09:31:43;;;;;;;2.37;2.17;;;;;;;29.02;25.44;100052.97;5531503;32;33928;-90
2023/06/13 09:34:48;;;;;;;2.53;2.33;;;;;;;26.75;27.89;100041.84;5532945;32;34081;-90
2023/06/13 09:41:21;;;;;;;3.63;2.50;;;;;;;26.78;26.89;100037.91;5547461;32;34495;-89
2023/06/13 09:48:23;;;;;;;5.68;2.75;;;;;;;25.91;28.96;100043.00;988357;26;20475;-89
2023/06/13 09:51:29;;;;;;;6.37;2.60;;;;;;;24.75;29.70;100031.97;5555940;32;31669;-89
2023/06/13 09:54:31;;;;;;;6.40;2.70;;;;;;;26.31;28.67;100023.75;5571719;32;33772;-89
2023/06/13 09:57:37;;;;;;;3.87;2.50;;;;;;;27.35;27.67;100032.66;5573777;31;34240;-86
2023/06/13 10:01:00;;;;;;;2.40;2.20;;;;;;;27.03;26.26;100040.31;5540854;32;34887;-91
2023/06/13 10:04:05;;;;;;;3.75;2.90;;;;;;;28.37;25.62;100045.16;5558914;32;35295;-92
2023/06/13 10:07:09;;;;;;;3.75;2.60;;;;;;;27.31;26.35;100034.94;5563675;32;33908;-92
2023/06/13 10:10:12;;;;;;;3.87;2.40;;;;;;;25.56;29.96;100038.91;5555005;32;33844;-88
2023/06/13 10:13:18;;;;;;;4.40;2.60;;;;;;;27.13;28.36;100037.25;5559235;32;34104;-88
2023/06/13 10:16:22;;;;;;;5.00;2.70;;;;;;;26.47;28.22;100039.00;5552413;32;34647;-88
2023/06/13 10:19:26;;;;;;;4.37;2.62;;;;;;;26.21;30.15;100046.56;5555432;32;33695;-89
2023/06/13 10:22:29;;;;;;;5.55;2.28;;;;;;;26.42;29.13;100041.44;5558815;32;33727;-89
2023/06/13 10:25:34;;;;;;;3.00;2.40;;;;;;;27.94;29.01;100029.78;5567512;32;33755;-88
2023/06/13 10:28:39;;;;;;;6.37;2.90;;;;;;;27.91;27.58;100039.19;5551056;32;33397;-88
2023/06/13 10:32:08;;;;;;;3.67;3.00;;;;;;;26.70;29.21;100022.53;5551624;32;33553;-88
2023/06/13 10:35:16;;;;;;;3.40;2.97;;;;;;;25.33;32.46;100019.91;5553438;32;34796;-86
2023/06/13 10:38:59;;;;;;;2.70;2.50;;;;;;;24.29;32.32;100027.28;5552836;32;34427;-86
2023/06/13 10:42:12;;;;;;;6.10;2.83;;;;;;;24.57;31.54;100023.25;5555768;32;33973;-88
2023/06/13 10:45:23;;;;;;;4.47;2.30;;;;;;;24.19;32.60;100024.75;5551238;32;33818;-87
2023/06/13 10:48:52;;;;;;;2.70;2.45;;;;;;;25.39;30.91;100012.94;5561349;32;33883;-88
2023/06/13 10:51:55;;;;;;;3.17;2.30;;;;;;;26.55;30.04;100000.81;5551182;32;34252;-87
2023/06/13 10:55:00;;;;;;;4.82;2.45;;;;;;;27.10;28.74;100003.09;5566058;32;34478;-86
2023/06/13 10:58:11;;;;;;;4.00;2.25;;;;;;;26.78;29.94;99997.97;5551670;32;34504;-85
2023/06/13 11:01:27;;;;;;;;;;;;;;;27.15;29.09;99995.19;5553991;32;33554;-87
2023/06/13 11:04:31;;;;;;;3.03;2.83;;;;;;;27.34;28.23;99992.84;5552472;32;34684;-85
2023/06/13 11:07:35;;;;;;;3.08;2.35;;;;;;;25.76;30.78;99994.09;5561024;32;34057;-86
2023/06/13 11:10:38;;;;;;;2.92;2.53;;;;;;;26.35;29.71;100001.41;5561672;32;34140;-86
2023/06/13 11:13:44;;;;;;;3.00;2.53;;;;;;;25.14;32.10;99992.25;5553417;32;33447;-86
2023/06/13 11:16:47;;;;;;;3.50;2.22;;;;;;;26.18;30.31;100000.75;5561517;32;34440;-87
2023/06/13 11:19:56;;;;;;;4.30;2.65;;;;;;;26.37;28.97;99995.81;5552706;32;33999;-87
2023/06/13 11:22:58;;;;;;;2.67;2.30;;;;;;;26.45;29.28;99983.97;5549161;32;33495;-86
2023/06/13 11:26:03;;;;;;;3.12;2.50;;;;;;;27.18;28.20;99991.25;5550881;32;33530;-87
2023/06/13 11:29:07;;;;;;;3.08;2.33;;;;;;;27.11;28.26;99983.00;5548126;32;34039;-87
2023/06/13 11:32:11;;;;;;;7.53;2.97;;;;;;;27.25;27.71;99985.87;5550092;32;34664;-87
2023/06/13 11:35:17;;;;;;;4.62;2.42;;;;;;;27.24;28.69;99979.56;5549039;32;34397;-87
2023/06/13 11:38:44;;;;;;;4.25;2.60;;;;;;;27.18;29.06;99967.59;5550108;32;34089;-86
2023/06/13 11:41:48;;;;;;;2.50;2.28;;;;;;;25.38;31.05;99965.91;5545591;32;33701;-86
2023/06/13 11:44:50;;;;;;;4.10;2.58;;;;;;;25.52;30.32;99974.28;5530740;32;33641;-86
2023/06/13 11:47:57;;;;;;;2.83;2.40;;;;;;;25.81;29.94;99967.22;5531469;32;33997;-87
2023/06/13 11:51:15;;;;;;;4.45;2.75;;;;;;;25.09;30.70;99967.50;5541989;32;34837;-88
2023/06/13 11:54:17;;;;;;;4.05;2.58;;;;;;;24.99;31.88;99973.19;5548333;32;33864;-86
2023/06/13 11:57:20;;;;;;;5.25;2.80;;;;;;;22.95;32.82;99970.72;5544472;32;33797;-86
2023/06/13 12:00:27;;;;;;;4.07;2.95;;;;;;;22.87;33.94;99968.84;5555238;32;34658;-86
2023/06/13 12:03:37;;;;;;;4.15;2.22;;;;;;;23.57;35.37;99955.00;5557198;32;34531;-86
2023/06/13 12:06:40;;;;;;;2.70;2.12;;;;;;;24.23;32.81;99958.38;5546025;32;34774;-90
2023/06/13 12:09:43;;;;;;;2.58;2.37;;;;;;;24.40;31.03;99968.28;5552566;32;33496;-89
2023/06/13 12:12:56;;;;;;;3.20;2.50;;;;;;;24.84;30.06;99950.59;5553564;32;34361;-86
2023/06/13 12:16:00;;;;;;;6.72;2.72;;;;;;;25.07;30.25;99945.16;5550174;32;33930;-85
2023/06/13 12:19:09;;;;;;;2.90;2.67;;;;;;;24.30;31.26;99944.97;5560139;32;33442;-87
2023/06/13 12:22:13;;;;;;;10.38;2.67;;;;;;;23.14;31.98;99942.50;5556625;32;34348;-85
2023/06/13 12:25:16;;;;;;;2.62;2.25;;;;;;;22.64;34.60;99941.59;5548778;32;34190;-87
2023/06/13 12:28:20;;;;;;;4.18;2.60;;;;;;;22.58;35.78;99941.25;5548867;32;34614;-86
2023/06/13 12:31:35;;;;;;;3.22;2.30;;;;;;;21.73;37.44;99936.69;5548408;32;33776;-86
2023/06/13 12:34:41;;;;;;;3.70;2.70;;;;;;;22.23;36.03;99947.72;5551106;32;33924;-87
2023/06/13 12:37:44;;;;;;;5.93;2.72;;;;;;;22.32;34.66;99938.63;5550896;32;33882;-86
2023/06/13 12:40:51;;;;;;;3.75;2.80;;;;;;;22.34;35.93;99934.75;5552528;32;33842;-86
2023/06/13 12:43:54;;;;;;;3.33;2.50;;;;;;;22.03;37.44;99929.91;5550786;32;33752;-87
2023/06/13 12:46:59;;;;;;;3.80;2.65;;;;;;;21.93;37.41;99930.03;5559054;32;33786;-87
2023/06/13 12:50:09;;;;;;;4.18;2.78;;;;;;;22.30;35.97;99922.59;5551761;32;33646;-87
2023/06/13 12:53:18;;;;;;;5.43;2.80;;;;;;;22.25;34.27;99927.63;5554859;32;33797;-86
2023/06/13 12:56:20;;;;;;;4.12;2.28;;;;;;;22.31;35.27;99926.13;5565557;32;34768;-86
2023/06/13 12:59:37;;;;;;;3.50;3.03;;;;;;;22.34;35.97;99925.81;5556567;32;34126;-86
2023/06/13 13:02:40;;;;;;;5.32;2.75;;;;;;;22.11;36.21;99920.16;5555422;32;34575;-87
2023/06/13 13:05:43;;;;;;;3.58;2.60;;;;;;;22.51;35.64;99926.69;5553994;32;35127;-87
2023/06/13 13:08:45;;;;;;;5.37;2.80;;;;;;;22.33;33.87;99932.22;5560990;32;33853;-87
2023/06/13 13:11:48;;;;;;;3.47;2.97;;;;;;;22.35;34.22;99920.25;5554731;32;33903;-87
2023/06/13 13:14:51;;;;;;;8.23;2.70;;;;;;;22.51;34.92;99923.97;5564757;32;34208;-87
2023/06/13 13:17:54;;;;;;;4.53;2.37;;;;;;;22.62;35.29;99920.13;5554166;32;34166;-87
2023/06/13 13:20:56;;;;;;;4.57;2.97;;;;;;;23.41;34.16;99918.81;5551093;32;35442;-86
2023/06/13 13:24:00;;;;;;;3.90;2.75;;;;;;;23.57;34.38;99917.09;5550021;32;34371;-86
2023/06/13 13:27:03;;;;;;;5.15;2.83;;;;;;;23.64;33.84;99918.94;5548040;32;34685;-86
2023/06/13 13:30:07;;;;;;;7.20;2.90;;;;;;;23.71;32.87;99910.97;5549198;32;33853;-86
2023/06/13 13:33:09;;;;;;;4.32;2.53;;;;;;;23.40;33.72;99909.87;5552402;32;34445;-86
2023/06/13 13:36:12;;;;;;;3.35;2.70;;;;;;;23.78;33.98;99911.13;5560353;32;33982;-90
2023/06/13 13:39:16;;;;;;;2.87;2.67;;;;;;;23.15;34.77;99914.44;5541911;32;33642;-90
2023/06/13 13:42:20;;;;;;;4.10;2.90;;;;;;;22.66;36.92;99902.59;5531756;32;33791;-90
2023/06/13 13:45:28;;;;;;;3.47;2.92;;;;;;;22.35;37.17;99901.34;5548248;32;33861;-87
2023/06/13 13:48:31;;;;;;;6.32;2.62;;;;;;;21.66;37.87;99902.22;5549012;32;34059;-86
2023/06/13 13:51:34;;;;;;;5.95;2.80;;;;;;;21.91;35.89;99909.59;5531889;32;33713;-86
2023/06/13 13:54:37;;;;;;;5.10;2.80;;;;;;;21.78;36.78;99904.66;5546859;32;33866;-86
2023/06/13 13:57:40;;;;;;;4.20;2.58;;;;;;;21.68;38.18;99897.50;5532013;32;33720;-86
2023/06/13 14:00:43;;;;;;;9.60;2.75;;;;;;;21.44;40.56;99898.22;5536547;32;33520;-87
2023/06/13 14:03:46;;;;;;;4.53;2.65;;;;;;;21.59;40.11;99903.00;5539706;32;34561;-86
2023/06/13 14:06:49;;;;;;;3.03;2.83;;;;;;;21.50;37.04;99889.47;5551285;32;33818;-87
2023/06/13 14:09:52;;;;;;;5.65;2.70;;;;;;;21.16;38.34;99890.25;5551888;32;33726;-87
2023/06/13 14:12:55;;;;;;;5.37;3.12;;;;;;;21.47;39.24;99887.09;5551730;32;33755;-86
2023/06/13 14:15:59;;;;;;;4.72;3.20;;;;;;;21.29;40.01;99895.25;5552130;32;34780;-86
2023/06/13 14:19:01;;;;;;;5.22;2.53;;;;;;;21.50;38.53;99891.31;5552533;32;34407;-86
2023/06/13 14:22:04;;;;;;;5.22;2.92;;;;;;;21.60;39.31;99886.66;5551591;32;34394;-86
2023/06/13 14:25:08;;;;;;;4.62;3.17;;;;;;;21.53;39.26;99883.75;5552194;32;34435;-87
2023/06/13 14:28:12;;;;;;;3.30;2.70;;;;;;;21.18;41.67;99880.19;5554825;32;34414;-87
2023/06/13 14:31:15;;;;;;;6.32;3.12;;;;;;;21.17;40.28;99886.56;5554241;32;34049;-86
2023/06/13 14:34:18;;;;;;;3.67;2.80;;;;;;;21.14;40.90;99885.03;5551444;32;34280;-86
2023/06/13 14:37:21;;;;;;;7.57;3.00;;;;;;;21.04;39.77;99888.81;5551704;32;33990;-87
2023/06/13 14:40:24;;;;;;;3.33;3.03;;;;;;;20.76;40.64;99886.22;5551914;32;33722;-86
2023/06/13 14:43:26;;;;;;;5.00;3.83;;;;;;;20.79;41.54;99875.12;5552134;32;34348;-87
2023/06/13 14:46:29;;;;;;;4.15;3.05;;;;;;;20.52;41.28;99880.44;5552054;32;34313;-87
2023/06/13 14:49:32;;;;;;;3.80;2.78;;;;;;;20.50;42.17;99868.97;5550650;32;33783;-87
2023/06/13 14:52:38;;;;;;;5.57;2.70;;;;;;;20.55;42.11;99860.41;5553875;32;34259;-87
2023/06/13 14:55:40;;;;;;;3.83;3.08;;;;;;;20.35;41.47;99867.81;5553973;32;34053;-87
2023/06/13 14:58:43;;;;;;;3.17;2.55;;;;;;;20.46;41.63;99865.75;5547706;32;33384;-87
2023/06/13 15:01:46;;;;;;;4.25;2.95;;;;;;;20.98;40.51;99858.78;5546953;32;33347;-87
2023/06/13 15:04:49;;;;;;;3.30;2.45;;;;;;;21.30;39.08;99852.94;5548636;32;32614;-87
2023/06/13 15:07:52;;;;;;;5.43;3.00;;;;;;;21.13;39.36;99860.94;5550579;32;34073;-87
2023/06/13 15:10:55;;;;;;;3.90;3.03;;;;;;;21.06;40.50;99854.47;5549695;32;33646;-87
2023/06/13 15:13:58;;;;;;;3.90;2.55;;;;;;;20.98;40.09;99856.09;5549773;32;33874;-87
2023/06/13 15:17:01;;;;;;;4.35;2.97;;;;;;;20.86;40.69;99847.41;5550765;32;33683;-87
2023/06/13 15:20:07;;;;;;;4.22;3.10;;;;;;;21.19;38.81;99851.34;5551582;32;33832;-87
2023/06/13 15:23:10;;;;;;;3.20;2.80;;;;;;;20.94;39.57;99852.03;5551054;32;34376;-89
2023/06/13 15:26:13;;;;;;;4.00;3.03;;;;;;;20.88;39.84;99844.56;5557088;32;35772;-87
2023/06/13 15:29:15;;;;;;;4.75;3.05;;;;;;;20.50;39.72;99836.66;5555894;32;33787;-87
2023/06/13 15:32:20;;;;;;;3.85;2.70;;;;;;;20.67;41.11;99829.53;5549468;32;33949;-86
2023/06/13 15:35:23;;;;;;;4.53;2.85;;;;;;;20.56;40.80;99837.84;5549408;32;34338;-88
2023/06/13 15:38:25;;;;;;;3.22;2.90;;;;;;;20.32;43.05;99839.34;5549499;32;33629;-88
2023/06/13 15:41:28;;;;;;;4.35;2.80;;;;;;;20.45;42.12;99837.12;5550190;32;33388;-88
2023/06/13 15:44:31;;;;;;;3.10;2.78;;;;;;;20.70;40.56;99850.81;5552836;32;34906;-88
